Time;durP1;ratioP1;P1;durP2;ratioP2;P2;SDS_P1;SDS_P2;PMS_P1;PMS_P2;Temp;Humidity;BMP_temperature;BMP_pressure;BME280_temperature;BME280_humidity;BME280_pressure;Samples;Min_cycle;Max_cycle;Signal;HPM_P1;HPM_P2
2021/10/23 00:07:28;;;;;;;;;;;1.80;99.90;;;;;;20906539;28;19967;-74
2021/10/23 00:17:28;;;;;;;;;;;1.70;99.90;;;;;;20911118;28;19917;-74
2021/10/23 00:27:29;;;;;;;;;;;1.60;99.90;;;;;;20921693;28;19913;-74
2021/10/23 00:37:30;;;;;;;;;;;1.50;99.90;;;;;;20920730;28;19943;-75
2021/10/23 00:47:31;;;;;;;;;;;1.60;99.90;;;;;;20919970;28;19996;-74
2021/10/23 00:57:32;;;;;;;;;;;1.40;99.90;;;;;;20901086;28;19978;-74
2021/10/23 01:07:33;;;;;;;;;;;1.40;99.90;;;;;;20918318;28;20003;-74
2021/10/23 01:17:34;;;;;;;;;;;1.40;99.90;;;;;;20917748;28;19924;-74
2021/10/23 01:27:35;;;;;;;;;;;1.30;99.90;;;;;;20916889;28;19952;-74
2021/10/23 01:37:36;;;;;;;;;;;0.90;99.90;;;;;;20898202;28;19916;-74
2021/10/23 01:47:38;;;;;;;;;;;0.80;99.90;;;;;;20915223;28;20314;-74
2021/10/23 01:57:39;;;;;;;;;;;0.80;99.90;;;;;;20914443;28;19917;-73
2021/10/23 02:07:40;;;;;;;;;;;0.70;99.90;;;;;;20913523;28;20007;-74
2021/10/23 02:17:40;;;;;;;;;;;0.90;99.90;;;;;;20912910;28;20006;-74
2021/10/23 02:27:41;;;;;;;;;;;0.60;99.90;;;;;;20912339;28;19989;-74
2021/10/23 02:37:42;;;;;;;;;;;0.60;99.90;;;;;;20910775;28;20383;-74
2021/10/23 02:47:42;;;;;;;;;;;0.80;99.90;;;;;;20910736;28;19912;-74
2021/10/23 02:57:43;;;;;;;;;;;0.90;99.90;;;;;;20909942;28;19921;-74
2021/10/23 03:07:47;;;;;;;;;;;0.80;99.90;;;;;;20891511;28;20333;-73
2021/10/23 03:17:48;;;;;;;;;;;0.60;99.90;;;;;;20908727;28;19944;-73
2021/10/23 03:27:49;;;;;;;;;;;0.40;99.90;;;;;;20890339;28;19913;-73
2021/10/23 03:37:50;;;;;;;;;;;0.50;99.90;;;;;;20907493;28;20439;-74
2021/10/23 03:47:50;;;;;;;;;;;0.60;99.90;;;;;;20907300;28;19916;-73
2021/10/23 03:57:51;;;;;;;;;;;0.50;99.90;;;;;;20903505;28;19916;-73
2021/10/23 04:07:53;;;;;;;;;;;0.50;99.90;;;;;;20922758;28;19920;-74
2021/10/23 04:17:54;;;;;;;;;;;0.60;99.90;;;;;;20922261;28;20011;-74
2021/10/23 04:27:55;;;;;;;;;;;0.90;99.90;;;;;;20921681;28;19939;-73
2021/10/23 04:37:55;;;;;;;;;;;1.00;99.90;;;;;;20891755;28;19960;-74
2021/10/23 04:47:56;;;;;;;;;;;1.10;99.90;;;;;;20902431;28;19919;-74
2021/10/23 04:57:58;;;;;;;;;;;1.10;99.90;;;;;;20919232;28;19917;-73
2021/10/23 05:07:58;;;;;;;;;;;1.00;99.90;;;;;;20918733;28;19920;-73
2021/10/23 05:17:59;;;;;;;;;;;1.00;99.90;;;;;;20918204;28;20012;-73
2021/10/23 05:28:00;;;;;;;;;;;0.90;99.90;;;;;;20916980;28;19913;-73
2021/10/23 05:38:00;;;;;;;;;;;0.80;99.90;;;;;;20912779;22;20387;-76
2021/10/23 05:48:01;;;;;;;;;;;0.40;99.90;;;;;;20916042;28;19923;-74
2021/10/23 05:58:02;;;;;;;;;;;0.40;99.90;;;;;;20914993;28;20003;-75
2021/10/23 06:08:03;;;;;;;;;;;0.60;99.90;;;;;;20896555;28;19913;-75
2021/10/23 06:18:04;;;;;;;;;;;0.70;99.90;;;;;;20892690;28;20291;-76
2021/10/23 06:28:05;;;;;;;;;;;0.70;99.90;;;;;;20912752;28;20290;-76
2021/10/23 06:38:06;;;;;;;;;;;1.10;99.90;;;;;;20911603;28;20018;-76
2021/10/23 06:48:07;;;;;;;;;;;1.30;99.90;;;;;;20911102;28;20297;-76
2021/10/23 06:58:08;;;;;;;;;;;1.60;99.90;;;;;;20913119;28;20012;-77
2021/10/23 07:08:08;;;;;;;;;;;2.00;99.90;;;;;;20916652;28;19912;-77
2021/10/23 07:18:09;;;;;;;;;;;2.40;99.90;;;;;;20919261;28;19917;-78
2021/10/23 07:28:10;;;;;;;;;;;2.50;99.90;;;;;;20928689;28;19923;-77
2021/10/23 07:38:11;;;;;;;;;;;3.70;99.90;;;;;;20926799;28;19916;-77
2021/10/23 07:48:11;;;;;;;;;;;5.30;99.90;;;;;;20906216;28;20301;-79
2021/10/23 07:58:12;;;;;;;;;;;5.70;99.90;;;;;;20924002;28;19923;-79
2021/10/23 08:08:13;;;;;;;;;;;6.50;99.90;;;;;;20924233;28;19935;-79
2021/10/23 08:18:14;;;;;;;;;;;7.00;99.90;;;;;;20922781;28;19916;-80
2021/10/23 08:28:14;;;;;;;;;;;7.50;99.90;;;;;;20921360;28;20283;-80
2021/10/23 08:38:15;;;;;;;;;;;8.60;99.90;;;;;;20925241;28;19924;-78
2021/10/23 08:48:16;;;;;;;;;;;9.20;99.90;;;;;;20919143;28;19913;-79
2021/10/23 08:58:17;;;;;;;;;;;10.00;99.90;;;;;;20919531;28;19924;-79
2021/10/23 09:08:18;;;;;;;;;;;10.00;99.90;;;;;;20935558;28;19912;-80
2021/10/23 09:18:19;;;;;;;;;;;10.90;99.90;;;;;;20933260;28;19916;-80
2021/10/23 09:28:27;;;;;;;;;;;9.40;99.90;;;;;;20933510;28;20279;-79
2021/10/23 09:38:30;;;;;;;;;;;9.70;99.90;;;;;;20931750;28;20379;-79
2021/10/23 09:48:50;;;;;;;;;;;11.30;99.90;;;;;;20933531;28;19924;-80
2021/10/23 09:58:55;;;;;;;;;;;12.30;99.90;;;;;;20929814;28;19921;-81
2021/10/23 10:08:56;;;;;;;;;;;14.00;99.90;;;;;;20913048;28;20365;-80
2021/10/23 10:18:59;;;;;;;;;;;13.90;99.90;;;;;;20902063;28;20135;-78
2021/10/23 10:29:25;;;;;;;;;;;13.20;99.90;;;;;;20891518;28;19963;-78
2021/10/23 10:39:55;;;;;;;;;;;14.20;99.90;;;;;;20873573;28;19928;-78
2021/10/23 10:49:56;;;;;;;;;;;15.70;99.90;;;;;;20886884;28;19973;-79
2021/10/23 10:59:57;;;;;;;;;;;15.70;99.90;;;;;;20888928;28;19925;-79
2021/10/23 11:09:58;;;;;;;;;;;15.60;99.90;;;;;;20890356;28;19998;-79
2021/10/23 11:19:59;;;;;;;;;;;16.40;99.90;;;;;;20889500;28;19931;-80
2021/10/23 11:30:01;;;;;;;;;;;17.10;99.90;;;;;;20889612;28;20294;-80
2021/10/23 11:40:04;;;;;;;;;;;16.90;99.90;;;;;;20896469;28;19967;-80
2021/10/23 11:50:05;;;;;;;;;;;16.70;99.90;;;;;;20898446;28;20386;-80
2021/10/23 12:00:16;;;;;;;;;;;17.00;99.90;;;;;;20875437;28;19960;-80
2021/10/23 12:10:17;;;;;;;;;;;16.70;99.90;;;;;;20872805;28;20068;-81
2021/10/23 12:20:18;;;;;;;;;;;16.80;99.90;;;;;;20903306;28;19992;-80
2021/10/23 12:30:19;;;;;;;;;;;16.90;99.90;;;;;;20904475;28;19916;-85
2021/10/23 12:40:26;;;;;;;;;;;17.50;99.90;;;;;;20918879;28;19921;-83
2021/10/23 12:50:27;;;;;;;;;;;17.00;99.90;;;;;;20923031;28;19916;-83
2021/10/23 13:00:28;;;;;;;;;;;17.30;99.90;;;;;;20929368;28;20865;-84
2021/10/23 13:10:29;;;;;;;;;;;17.20;99.90;;;;;;20942685;28;19917;-81
2021/10/23 13:20:30;;;;;;;;;;;17.50;99.90;;;;;;20932153;28;19920;-78
2021/10/23 13:30:32;;;;;;;;;;;17.10;99.90;;;;;;20943698;28;19920;-82
2021/10/23 13:40:33;;;;;;;;;;;17.30;99.90;;;;;;20951471;28;19929;-81
2021/10/23 13:50:35;;;;;;;;;;;17.30;99.90;;;;;;20924967;28;19927;-81
2021/10/23 14:00:37;;;;;;;;;;;17.40;99.90;;;;;;20934413;28;19920;-81
2021/10/23 14:10:38;;;;;;;;;;;17.50;99.90;;;;;;20950880;28;19924;-82
2021/10/23 14:20:39;;;;;;;;;;;17.20;99.90;;;;;;20928680;28;20010;-81
2021/10/23 14:30:40;;;;;;;;;;;17.80;99.90;;;;;;20897627;28;19921;-80
2021/10/23 14:40:41;;;;;;;;;;;17.10;99.90;;;;;;20871045;28;19925;-80
2021/10/23 14:50:42;;;;;;;;;;;17.70;99.90;;;;;;20887995;28;20842;-79
2021/10/23 15:00:42;;;;;;;;;;;17.20;99.90;;;;;;20886531;28;20043;-79
2021/10/23 15:10:43;;;;;;;;;;;16.30;99.90;;;;;;20887256;28;20373;-80
2021/10/23 15:20:44;;;;;;;;;;;16.80;99.90;;;;;;20886793;28;19924;-80
2021/10/23 15:30:45;;;;;;;;;;;16.60;99.90;;;;;;20875152;28;20477;-79
2021/10/23 15:40:50;;;;;;;;;;;16.10;99.90;;;;;;20868449;28;20547;-81
2021/10/23 15:50:50;;;;;;;;;;;15.00;99.90;;;;;;20896938;28;19921;-79
2021/10/23 16:00:51;;;;;;;;;;;13.40;99.90;;;;;;20882254;28;20402;-79
2021/10/23 16:10:52;;;;;;;;;;;12.50;99.90;;;;;;20927831;28;19920;-80
2021/10/23 16:20:52;;;;;;;;;;;12.00;99.90;;;;;;20930921;28;20433;-79
2021/10/23 16:30:53;;;;;;;;;;;11.50;99.90;;;;;;20939266;28;20000;-79
2021/10/23 16:40:54;;;;;;;;;;;10.70;99.90;;;;;;20964618;28;20107;-79
2021/10/23 16:50:55;;;;;;;;;;;10.00;99.90;;;;;;20955731;28;19971;-80
2021/10/23 17:00:56;;;;;;;;;;;9.70;99.90;;;;;;20896707;28;19931;-81
2021/10/23 17:10:57;;;;;;;;;;;9.50;99.90;;;;;;20886880;28;20466;-80
2021/10/23 17:20:57;;;;;;;;;;;8.50;99.90;;;;;;20895955;28;19924;-80
2021/10/23 17:30:59;;;;;;;;;;;8.20;99.90;;;;;;20893985;28;20003;-81
2021/10/23 17:41:00;;;;;;;;;;;8.00;99.90;;;;;;20898614;28;19924;-79
2021/10/23 17:51:01;;;;;;;;;;;8.10;99.90;;;;;;20894567;28;20256;-80
2021/10/23 18:01:02;;;;;;;;;;;8.00;99.90;;;;;;20891102;28;19925;-76
2021/10/23 18:11:04;;;;;;;;;;;7.70;99.90;;;;;;20872106;28;19920;-79
2021/10/23 18:21:05;;;;;;;;;;;7.60;99.90;;;;;;20872861;28;19959;-80
2021/10/23 18:31:06;;;;;;;;;;;7.30;99.90;;;;;;20893630;28;19966;-79
2021/10/23 18:41:07;;;;;;;;;;;7.20;99.90;;;;;;20895184;28;19920;-79
2021/10/23 18:51:08;;;;;;;;;;;7.00;99.90;;;;;;20895629;28;20088;-79
2021/10/23 19:01:09;;;;;;;;;;;7.30;99.90;;;;;;20890512;28;20030;-79
2021/10/23 19:11:10;;;;;;;;;;;6.80;99.90;;;;;;20894280;28;20018;-79
2021/10/23 19:21:10;;;;;;;;;;;6.90;99.90;;;;;;20882343;28;20007;-79
2021/10/23 19:31:12;;;;;;;;;;;6.90;99.90;;;;;;20880615;28;19932;-80
2021/10/23 19:41:13;;;;;;;;;;;6.70;99.90;;;;;;20881696;28;19924;-79
2021/10/23 19:51:14;;;;;;;;;;;6.60;99.90;;;;;;20879488;28;19921;-77
2021/10/23 20:01:15;;;;;;;;;;;6.80;99.90;;;;;;20901807;28;21321;-78
2021/10/23 20:11:15;;;;;;;;;;;6.80;99.90;;;;;;20879063;28;19917;-78
2021/10/23 20:21:16;;;;;;;;;;;6.80;99.90;;;;;;20881830;28;20424;-78
2021/10/23 20:31:17;;;;;;;;;;;6.70;99.90;;;;;;20889726;28;19920;-79
2021/10/23 20:41:19;;;;;;;;;;;6.40;99.90;;;;;;20888869;28;19925;-79
2021/10/23 20:51:23;;;;;;;;;;;6.30;99.90;;;;;;20910966;28;19917;-79
2021/10/23 21:01:24;;;;;;;;;;;6.10;99.90;;;;;;20886456;28;19967;-78
2021/10/23 21:11:25;;;;;;;;;;;6.10;99.90;;;;;;20885737;28;19920;-78
2021/10/23 21:21:26;;;;;;;;;;;6.00;99.90;;;;;;20907307;28;19916;-78
2021/10/23 21:31:30;;;;;;;;;;;5.70;99.90;;;;;;20914062;28;19916;-79
2021/10/23 21:41:31;;;;;;;;;;;5.80;99.90;;;;;;20911255;28;19917;-78
2021/10/23 21:51:32;;;;;;;;;;;5.80;99.90;;;;;;20928926;28;19924;-78
2021/10/23 22:01:33;;;;;;;;;;;5.70;99.90;;;;;;20932912;28;19923;-78
2021/10/23 22:11:36;;;;;;;;;;;5.60;99.90;;;;;;20940337;28;19913;-78
2021/10/23 22:21:38;;;;;;;;;;;5.80;99.90;;;;;;20904163;28;19923;-78
2021/10/23 22:31:38;;;;;;;;;;;5.90;99.90;;;;;;20883381;28;19925;-79
2021/10/23 22:41:39;;;;;;;;;;;5.80;99.90;;;;;;20899467;28;20462;-81
2021/10/23 22:51:40;;;;;;;;;;;5.60;99.90;;;;;;20893501;28;19921;-80
2021/10/23 23:01:41;;;;;;;;;;;5.40;99.90;;;;;;20868674;28;20668;-80
2021/10/23 23:11:41;;;;;;;;;;;5.30;99.90;;;;;;20849592;28;20594;-81
2021/10/23 23:21:42;;;;;;;;;;;5.10;99.90;;;;;;20887807;28;19956;-79
2021/10/23 23:31:43;;;;;;;;;;;5.10;99.90;;;;;;20901928;28;19916;-79
2021/10/23 23:41:43;;;;;;;;;;;5.20;99.90;;;;;;20907986;28;19928;-79
2021/10/23 23:51:44;;;;;;;;;;;5.10;99.90;;;;;;20896788;28;20291;-80
